sensor_id;sensor_type;location;lat;lon;timestamp;P1;durP1;ratioP1;P2;durP2;ratioP2
44098;SDS011;29762;50.086;14.364;2022-09-09T00:04:30;3.25;;;1.20;;
44098;SDS011;29762;50.086;14.364;2022-09-09T00:09:57;1.30;;;1.20;;
44098;SDS011;29762;50.086;14.364;2022-09-09T00:21:19;2.17;;;1.20;;
44098;SDS011;29762;50.086;14.364;2022-09-09T00:26:43;2.65;;;1.30;;
44098;SDS011;29762;50.086;14.364;2022-09-09T00:32:13;0.93;;;0.93;;
44098;SDS011;29762;50.086;14.364;2022-09-09T00:37:35;1.67;;;1.20;;
44098;SDS011;29762;50.086;14.364;2022-09-09T00:43:09;1.02;;;0.98;;
44098;SDS011;29762;50.086;14.364;2022-09-09T00:59:47;1.30;;;1.20;;
44098;SDS011;29762;50.086;14.364;2022-09-09T01:05:11;0.93;;;0.93;;
44098;SDS011;29762;50.086;14.364;2022-09-09T01:11:00;1.25;;;1.15;;
44098;SDS011;29762;50.086;14.364;2022-09-09T01:16:22;1.10;;;0.95;;
44098;SDS011;29762;50.086;14.364;2022-09-09T01:21:44;2.05;;;1.30;;
44098;SDS011;29762;50.086;14.364;2022-09-09T01:27:10;1.23;;;1.10;;
44098;SDS011;29762;50.086;14.364;2022-09-09T01:32:49;1.10;;;1.00;;
44098;SDS011;29762;50.086;14.364;2022-09-09T01:38:11;2.05;;;1.10;;
44098;SDS011;29762;50.086;14.364;2022-09-09T01:43:31;1.77;;;1.17;;
44098;SDS011;29762;50.086;14.364;2022-09-09T01:55:07;1.10;;;1.00;;
44098;SDS011;29762;50.086;14.364;2022-09-09T02:00:31;1.48;;;1.00;;
44098;SDS011;29762;50.086;14.364;2022-09-09T02:06:00;1.27;;;1.00;;
44098;SDS011;29762;50.086;14.364;2022-09-09T02:11:31;0.90;;;0.90;;
44098;SDS011;29762;50.086;14.364;2022-09-09T02:17:13;0.80;;;0.80;;
44098;SDS011;29762;50.086;14.364;2022-09-09T02:22:49;1.00;;;0.90;;
44098;SDS011;29762;50.086;14.364;2022-09-09T02:28:11;1.25;;;0.80;;
44098;SDS011;29762;50.086;14.364;2022-09-09T02:33:36;1.15;;;1.05;;
44098;SDS011;29762;50.086;14.364;2022-09-09T02:39:00;1.17;;;1.02;;
44098;SDS011;29762;50.086;14.364;2022-09-09T02:44:24;0.88;;;0.75;;
44098;SDS011;29762;50.086;14.364;2022-09-09T02:55:35;1.10;;;0.95;;
44098;SDS011;29762;50.086;14.364;2022-09-09T03:00:59;1.10;;;0.90;;
44098;SDS011;29762;50.086;14.364;2022-09-09T03:06:22;1.10;;;0.90;;
44098;SDS011;29762;50.086;14.364;2022-09-09T03:11:50;0.90;;;0.80;;
44098;SDS011;29762;50.086;14.364;2022-09-09T03:17:10;1.27;;;0.77;;
44098;SDS011;29762;50.086;14.364;2022-09-09T03:22:37;0.77;;;0.75;;
44098;SDS011;29762;50.086;14.364;2022-09-09T03:27:56;0.90;;;0.90;;
44098;SDS011;29762;50.086;14.364;2022-09-09T03:33:17;1.10;;;0.95;;
44098;SDS011;29762;50.086;14.364;2022-09-09T03:38:39;0.80;;;0.80;;
44098;SDS011;29762;50.086;14.364;2022-09-09T03:43:59;1.00;;;0.90;;
44098;SDS011;29762;50.086;14.364;2022-09-09T03:49:22;1.05;;;0.90;;
44098;SDS011;29762;50.086;14.364;2022-09-09T03:54:42;0.80;;;0.70;;
44098;SDS011;29762;50.086;14.364;2022-09-09T04:00:03;0.70;;;0.70;;
44098;SDS011;29762;50.086;14.364;2022-09-09T04:05:25;0.80;;;0.77;;
44098;SDS011;29762;50.086;14.364;2022-09-09T04:10:45;0.80;;;0.80;;
44098;SDS011;29762;50.086;14.364;2022-09-09T04:16:06;0.80;;;0.80;;
44098;SDS011;29762;50.086;14.364;2022-09-09T04:21:28;1.05;;;0.95;;
44098;SDS011;29762;50.086;14.364;2022-09-09T04:26:48;0.70;;;0.70;;
44098;SDS011;29762;50.086;14.364;2022-09-09T04:32:08;1.85;;;0.93;;
44098;SDS011;29762;50.086;14.364;2022-09-09T04:37:28;0.77;;;0.70;;
44098;SDS011;29762;50.086;14.364;2022-09-09T04:42:48;0.80;;;0.70;;
44098;SDS011;29762;50.086;14.364;2022-09-09T04:48:09;1.45;;;0.70;;
44098;SDS011;29762;50.086;14.364;2022-09-09T04:53:31;1.13;;;0.82;;
44098;SDS011;29762;50.086;14.364;2022-09-09T04:58:53;4.60;;;1.33;;
44098;SDS011;29762;50.086;14.364;2022-09-09T05:04:16;5.50;;;1.40;;
44098;SDS011;29762;50.086;14.364;2022-09-09T05:09:36;5.30;;;1.83;;
44098;SDS011;29762;50.086;14.364;2022-09-09T05:14:56;9.98;;;1.80;;
44098;SDS011;29762;50.086;14.364;2022-09-09T05:20:15;3.95;;;1.60;;
44098;SDS011;29762;50.086;14.364;2022-09-09T05:25:36;3.00;;;1.52;;
44098;SDS011;29762;50.086;14.364;2022-09-09T05:30:59;2.63;;;1.48;;
44098;SDS011;29762;50.086;14.364;2022-09-09T05:36:25;2.42;;;1.58;;
44098;SDS011;29762;50.086;14.364;2022-09-09T05:41:48;4.53;;;1.70;;
44098;SDS011;29762;50.086;14.364;2022-09-09T05:47:08;4.05;;;1.83;;
44098;SDS011;29762;50.086;14.364;2022-09-09T05:52:29;6.22;;;1.60;;
44098;SDS011;29762;50.086;14.364;2022-09-09T05:57:50;4.70;;;1.92;;
44098;SDS011;29762;50.086;14.364;2022-09-09T06:03:11;3.58;;;1.58;;
44098;SDS011;29762;50.086;14.364;2022-09-09T06:08:32;3.92;;;1.65;;
44098;SDS011;29762;50.086;14.364;2022-09-09T06:13:57;5.45;;;1.95;;
44098;SDS011;29762;50.086;14.364;2022-09-09T06:19:17;3.63;;;1.60;;
44098;SDS011;29762;50.086;14.364;2022-09-09T06:24:37;5.72;;;1.92;;
44098;SDS011;29762;50.086;14.364;2022-09-09T06:29:56;5.20;;;2.10;;
44098;SDS011;29762;50.086;14.364;2022-09-09T06:35:16;2.60;;;1.55;;
44098;SDS011;29762;50.086;14.364;2022-09-09T06:40:36;5.28;;;1.80;;
44098;SDS011;29762;50.086;14.364;2022-09-09T06:46:00;2.58;;;1.73;;
44098;SDS011;29762;50.086;14.364;2022-09-09T06:51:22;2.97;;;1.48;;
44098;SDS011;29762;50.086;14.364;2022-09-09T06:56:43;3.33;;;1.30;;
44098;SDS011;29762;50.086;14.364;2022-09-09T07:02:11;3.53;;;1.60;;
44098;SDS011;29762;50.086;14.364;2022-09-09T07:07:32;3.40;;;1.50;;
44098;SDS011;29762;50.086;14.364;2022-09-09T07:12:51;2.80;;;1.48;;
44098;SDS011;29762;50.086;14.364;2022-09-09T07:18:12;4.43;;;1.80;;
44098;SDS011;29762;50.086;14.364;2022-09-09T07:23:32;3.90;;;1.65;;
44098;SDS011;29762;50.086;14.364;2022-09-09T07:28:52;2.35;;;1.38;;
44098;SDS011;29762;50.086;14.364;2022-09-09T07:34:13;3.95;;;1.75;;
44098;SDS011;29762;50.086;14.364;2022-09-09T07:39:34;4.43;;;1.50;;
44098;SDS011;29762;50.086;14.364;2022-09-09T07:44:54;4.00;;;1.63;;
44098;SDS011;29762;50.086;14.364;2022-09-09T07:50:14;3.33;;;1.63;;
44098;SDS011;29762;50.086;14.364;2022-09-09T07:55:34;2.03;;;1.20;;
44098;SDS011;29762;50.086;14.364;2022-09-09T08:00:54;3.30;;;1.48;;
44098;SDS011;29762;50.086;14.364;2022-09-09T08:06:14;2.97;;;1.30;;
44098;SDS011;29762;50.086;14.364;2022-09-09T08:11:34;2.83;;;1.60;;
44098;SDS011;29762;50.086;14.364;2022-09-09T08:16:55;2.28;;;1.38;;
44098;SDS011;29762;50.086;14.364;2022-09-09T08:22:17;11.40;;;2.72;;
44098;SDS011;29762;50.086;14.364;2022-09-09T08:27:37;4.50;;;1.70;;
44098;SDS011;29762;50.086;14.364;2022-09-09T08:32:57;9.02;;;1.90;;
44098;SDS011;29762;50.086;14.364;2022-09-09T08:38:17;7.22;;;2.78;;
44098;SDS011;29762;50.086;14.364;2022-09-09T08:43:38;5.90;;;1.80;;
44098;SDS011;29762;50.086;14.364;2022-09-09T08:48:59;4.82;;;1.70;;
44098;SDS011;29762;50.086;14.364;2022-09-09T08:54:21;3.95;;;1.40;;
44098;SDS011;29762;50.086;14.364;2022-09-09T08:59:41;2.03;;;1.35;;
44098;SDS011;29762;50.086;14.364;2022-09-09T09:05:17;3.15;;;1.30;;
44098;SDS011;29762;50.086;14.364;2022-09-09T09:16:23;1.80;;;1.05;;
44098;SDS011;29762;50.086;14.364;2022-09-09T09:27:55;1.45;;;1.00;;
44098;SDS011;29762;50.086;14.364;2022-09-09T09:33:22;2.00;;;1.17;;
44098;SDS011;29762;50.086;14.364;2022-09-09T09:38:57;2.00;;;1.20;;
44098;SDS011;29762;50.086;14.364;2022-09-09T09:44:32;2.00;;;0.90;;
44098;SDS011;29762;50.086;14.364;2022-09-09T09:50:01;1.15;;;0.90;;
44098;SDS011;29762;50.086;14.364;2022-09-09T09:55:28;1.85;;;1.20;;
44098;SDS011;29762;50.086;14.364;2022-09-09T10:00:49;1.77;;;1.10;;
44098;SDS011;29762;50.086;14.364;2022-09-09T10:06:10;1.63;;;1.10;;
44098;SDS011;29762;50.086;14.364;2022-09-09T10:11:33;4.22;;;1.60;;
44098;SDS011;29762;50.086;14.364;2022-09-09T10:17:14;5.18;;;1.92;;
44098;SDS011;29762;50.086;14.364;2022-09-09T10:22:39;4.90;;;1.80;;
44098;SDS011;29762;50.086;14.364;2022-09-09T10:33:59;6.97;;;2.05;;
44098;SDS011;29762;50.086;14.364;2022-09-09T10:39:40;7.22;;;2.35;;
44098;SDS011;29762;50.086;14.364;2022-09-09T10:45:18;6.90;;;2.30;;
44098;SDS011;29762;50.086;14.364;2022-09-09T10:50:55;6.43;;;2.15;;
44098;SDS011;29762;50.086;14.364;2022-09-09T11:01:51;8.50;;;2.50;;
44098;SDS011;29762;50.086;14.364;2022-09-09T11:07:13;7.78;;;2.65;;
44098;SDS011;29762;50.086;14.364;2022-09-09T11:12:40;8.18;;;2.60;;
44098;SDS011;29762;50.086;14.364;2022-09-09T11:18:01;9.38;;;2.65;;
44098;SDS011;29762;50.086;14.364;2022-09-09T11:23:27;7.30;;;2.47;;
44098;SDS011;29762;50.086;14.364;2022-09-09T11:41:01;6.75;;;2.50;;
44098;SDS011;29762;50.086;14.364;2022-09-09T11:46:23;7.93;;;2.90;;
44098;SDS011;29762;50.086;14.364;2022-09-09T11:51:52;5.65;;;2.25;;
44098;SDS011;29762;50.086;14.364;2022-09-09T11:57:24;9.23;;;2.47;;
44098;SDS011;29762;50.086;14.364;2022-09-09T12:02:48;5.75;;;2.30;;
44098;SDS011;29762;50.086;14.364;2022-09-09T12:08:15;5.03;;;2.30;;
44098;SDS011;29762;50.086;14.364;2022-09-09T12:13:36;6.00;;;2.60;;
44098;SDS011;29762;50.086;14.364;2022-09-09T12:19:12;5.00;;;2.15;;
44098;SDS011;29762;50.086;14.364;2022-09-09T12:24:46;4.80;;;2.10;;
44098;SDS011;29762;50.086;14.364;2022-09-09T12:30:12;6.28;;;2.22;;
44098;SDS011;29762;50.086;14.364;2022-09-09T12:35:34;3.30;;;1.52;;
44098;SDS011;29762;50.086;14.364;2022-09-09T12:40:56;4.93;;;1.85;;
44098;SDS011;29762;50.086;14.364;2022-09-09T12:46:20;3.40;;;1.77;;
44098;SDS011;29762;50.086;14.364;2022-09-09T12:51:41;3.45;;;1.52;;
44098;SDS011;29762;50.086;14.364;2022-09-09T12:57:03;4.63;;;1.88;;
44098;SDS011;29762;50.086;14.364;2022-09-09T13:02:24;4.20;;;1.55;;
44098;SDS011;29762;50.086;14.364;2022-09-09T13:07:45;2.97;;;1.48;;
44098;SDS011;29762;50.086;14.364;2022-09-09T13:13:14;2.80;;;1.50;;
44098;SDS011;29762;50.086;14.364;2022-09-09T13:18:35;1.95;;;1.25;;
44098;SDS011;29762;50.086;14.364;2022-09-09T13:23:57;2.50;;;1.20;;
44098;SDS011;29762;50.086;14.364;2022-09-09T13:29:19;1.73;;;1.20;;
44098;SDS011;29762;50.086;14.364;2022-09-09T13:34:38;3.20;;;1.40;;
44098;SDS011;29762;50.086;14.364;2022-09-09T13:39:58;2.88;;;1.15;;
44098;SDS011;29762;50.086;14.364;2022-09-09T13:45:18;2.40;;;0.90;;
44098;SDS011;29762;50.086;14.364;2022-09-09T13:50:42;2.05;;;0.98;;
44098;SDS011;29762;50.086;14.364;2022-09-09T13:56:02;2.03;;;0.95;;
44098;SDS011;29762;50.086;14.364;2022-09-09T14:01:21;3.47;;;1.00;;
44098;SDS011;29762;50.086;14.364;2022-09-09T14:06:40;2.85;;;1.05;;
44098;SDS011;29762;50.086;14.364;2022-09-09T14:11:59;3.15;;;1.00;;
44098;SDS011;29762;50.086;14.364;2022-09-09T14:17:19;2.00;;;1.05;;
44098;SDS011;29762;50.086;14.364;2022-09-09T14:22:38;2.50;;;1.00;;
44098;SDS011;29762;50.086;14.364;2022-09-09T14:28:00;2.00;;;0.80;;
44098;SDS011;29762;50.086;14.364;2022-09-09T14:33:21;2.35;;;1.02;;
44098;SDS011;29762;50.086;14.364;2022-09-09T14:38:40;3.17;;;1.00;;
44098;SDS011;29762;50.086;14.364;2022-09-09T14:44:01;1.73;;;0.93;;
44098;SDS011;29762;50.086;14.364;2022-09-09T14:49:21;1.60;;;1.00;;
44098;SDS011;29762;50.086;14.364;2022-09-09T14:54:40;1.52;;;0.80;;
44098;SDS011;29762;50.086;14.364;2022-09-09T14:59:59;1.00;;;0.88;;
44098;SDS011;29762;50.086;14.364;2022-09-09T15:05:19;0.98;;;0.70;;
44098;SDS011;29762;50.086;14.364;2022-09-09T15:10:39;2.50;;;0.95;;
44098;SDS011;29762;50.086;14.364;2022-09-09T15:16:20;2.80;;;0.90;;
44098;SDS011;29762;50.086;14.364;2022-09-09T15:21:39;1.65;;;1.00;;
44098;SDS011;29762;50.086;14.364;2022-09-09T15:26:58;1.95;;;1.10;;
44098;SDS011;29762;50.086;14.364;2022-09-09T15:32:18;1.30;;;0.82;;
44098;SDS011;29762;50.086;14.364;2022-09-09T15:37:38;1.40;;;0.80;;
44098;SDS011;29762;50.086;14.364;2022-09-09T15:42:57;0.93;;;0.77;;
44098;SDS011;29762;50.086;14.364;2022-09-09T15:48:16;0.90;;;0.77;;
44098;SDS011;29762;50.086;14.364;2022-09-09T15:53:36;1.85;;;0.90;;
44098;SDS011;29762;50.086;14.364;2022-09-09T15:58:58;1.35;;;0.82;;
44098;SDS011;29762;50.086;14.364;2022-09-09T16:04:19;1.20;;;0.80;;
44098;SDS011;29762;50.086;14.364;2022-09-09T16:09:44;1.23;;;0.88;;
44098;SDS011;29762;50.086;14.364;2022-09-09T16:15:04;0.93;;;0.85;;
44098;SDS011;29762;50.086;14.364;2022-09-09T16:20:24;3.70;;;1.13;;
44098;SDS011;29762;50.086;14.364;2022-09-09T16:25:52;3.15;;;1.27;;
44098;SDS011;29762;50.086;14.364;2022-09-09T16:31:13;1.27;;;0.90;;
44098;SDS011;29762;50.086;14.364;2022-09-09T16:36:35;1.98;;;1.10;;
44098;SDS011;29762;50.086;14.364;2022-09-09T16:41:58;2.00;;;1.00;;
44098;SDS011;29762;50.086;14.364;2022-09-09T16:47:17;2.42;;;1.13;;
44098;SDS011;29762;50.086;14.364;2022-09-09T16:52:36;3.45;;;0.90;;
44098;SDS011;29762;50.086;14.364;2022-09-09T16:57:56;2.85;;;0.90;;
44098;SDS011;29762;50.086;14.364;2022-09-09T17:03:15;2.10;;;0.80;;
44098;SDS011;29762;50.086;14.364;2022-09-09T17:08:35;1.35;;;1.15;;
44098;SDS011;29762;50.086;14.364;2022-09-09T17:13:54;2.92;;;1.00;;
44098;SDS011;29762;50.086;14.364;2022-09-09T17:19:15;2.08;;;0.80;;
44098;SDS011;29762;50.086;14.364;2022-09-09T17:24:35;1.52;;;0.98;;
44098;SDS011;29762;50.086;14.364;2022-09-09T17:29:57;1.75;;;0.95;;
44098;SDS011;29762;50.086;14.364;2022-09-09T17:35:17;2.63;;;0.90;;
44098;SDS011;29762;50.086;14.364;2022-09-09T17:40:38;3.20;;;1.05;;
44098;SDS011;29762;50.086;14.364;2022-09-09T17:51:56;1.67;;;1.17;;
44098;SDS011;29762;50.086;14.364;2022-09-09T17:57:16;1.73;;;1.30;;
44098;SDS011;29762;50.086;14.364;2022-09-09T18:02:41;1.35;;;1.10;;
44098;SDS011;29762;50.086;14.364;2022-09-09T18:08:01;2.28;;;1.10;;
44098;SDS011;29762;50.086;14.364;2022-09-09T18:13:22;3.05;;;1.10;;
44098;SDS011;29762;50.086;14.364;2022-09-09T18:18:41;5.43;;;1.38;;
44098;SDS011;29762;50.086;14.364;2022-09-09T18:24:02;1.23;;;1.13;;
44098;SDS011;29762;50.086;14.364;2022-09-09T18:29:23;2.90;;;1.08;;
44098;SDS011;29762;50.086;14.364;2022-09-09T18:34:43;1.40;;;0.95;;
44098;SDS011;29762;50.086;14.364;2022-09-09T18:40:03;2.33;;;1.00;;
44098;SDS011;29762;50.086;14.364;2022-09-09T18:45:24;1.35;;;0.90;;
44098;SDS011;29762;50.086;14.364;2022-09-09T18:50:43;1.10;;;0.93;;
44098;SDS011;29762;50.086;14.364;2022-09-09T18:56:04;0.70;;;0.70;;
44098;SDS011;29762;50.086;14.364;2022-09-09T19:01:25;1.08;;;0.98;;
44098;SDS011;29762;50.086;14.364;2022-09-09T19:06:46;1.25;;;1.00;;
44098;SDS011;29762;50.086;14.364;2022-09-09T19:12:06;2.15;;;0.98;;
44098;SDS011;29762;50.086;14.364;2022-09-09T19:17:26;1.75;;;1.00;;
44098;SDS011;29762;50.086;14.364;2022-09-09T19:22:46;1.17;;;0.80;;
44098;SDS011;29762;50.086;14.364;2022-09-09T19:28:06;2.03;;;0.93;;
44098;SDS011;29762;50.086;14.364;2022-09-09T19:33:26;1.40;;;1.10;;
44098;SDS011;29762;50.086;14.364;2022-09-09T19:38:46;2.00;;;0.80;;
44098;SDS011;29762;50.086;14.364;2022-09-09T19:44:06;2.53;;;0.85;;
44098;SDS011;29762;50.086;14.364;2022-09-09T19:49:26;2.97;;;0.80;;
44098;SDS011;29762;50.086;14.364;2022-09-09T19:54:46;1.10;;;0.80;;
44098;SDS011;29762;50.086;14.364;2022-09-09T20:00:06;0.90;;;0.90;;
44098;SDS011;29762;50.086;14.364;2022-09-09T20:05:31;0.90;;;0.90;;
44098;SDS011;29762;50.086;14.364;2022-09-09T20:10:52;0.98;;;0.88;;
44098;SDS011;29762;50.086;14.364;2022-09-09T20:16:13;1.50;;;0.90;;
44098;SDS011;29762;50.086;14.364;2022-09-09T20:21:36;3.00;;;0.90;;
44098;SDS011;29762;50.086;14.364;2022-09-09T20:26:58;1.88;;;0.77;;
44098;SDS011;29762;50.086;14.364;2022-09-09T20:32:17;1.35;;;0.80;;
44098;SDS011;29762;50.086;14.364;2022-09-09T20:37:38;1.88;;;0.80;;
44098;SDS011;29762;50.086;14.364;2022-09-09T20:42:58;2.22;;;1.23;;
44098;SDS011;29762;50.086;14.364;2022-09-09T20:48:18;1.08;;;0.80;;
44098;SDS011;29762;50.086;14.364;2022-09-09T20:53:37;1.77;;;0.90;;
44098;SDS011;29762;50.086;14.364;2022-09-09T20:58:57;1.38;;;1.05;;
44098;SDS011;29762;50.086;14.364;2022-09-09T21:04:18;0.88;;;0.80;;
44098;SDS011;29762;50.086;14.364;2022-09-09T21:09:37;1.20;;;1.10;;
44098;SDS011;29762;50.086;14.364;2022-09-09T21:14:57;2.15;;;0.95;;
44098;SDS011;29762;50.086;14.364;2022-09-09T21:20:16;1.20;;;0.90;;
44098;SDS011;29762;50.086;14.364;2022-09-09T21:25:36;2.28;;;0.90;;
44098;SDS011;29762;50.086;14.364;2022-09-09T21:30:55;1.80;;;0.90;;
44098;SDS011;29762;50.086;14.364;2022-09-09T21:36:15;1.77;;;1.00;;
44098;SDS011;29762;50.086;14.364;2022-09-09T21:41:34;1.02;;;0.90;;
44098;SDS011;29762;50.086;14.364;2022-09-09T21:46:54;1.00;;;0.90;;
44098;SDS011;29762;50.086;14.364;2022-09-09T21:52:13;1.05;;;0.88;;
44098;SDS011;29762;50.086;14.364;2022-09-09T21:57:33;0.82;;;0.80;;
44098;SDS011;29762;50.086;14.364;2022-09-09T22:02:53;1.42;;;0.90;;
44098;SDS011;29762;50.086;14.364;2022-09-09T22:08:13;1.00;;;0.90;;
44098;SDS011;29762;50.086;14.364;2022-09-09T22:13:34;1.42;;;1.02;;
44098;SDS011;29762;50.086;14.364;2022-09-09T22:18:56;1.30;;;0.80;;
44098;SDS011;29762;50.086;14.364;2022-09-09T22:24:16;4.30;;;0.90;;
44098;SDS011;29762;50.086;14.364;2022-09-09T22:29:35;1.55;;;0.80;;
44098;SDS011;29762;50.086;14.364;2022-09-09T22:34:54;1.30;;;0.93;;
44098;SDS011;29762;50.086;14.364;2022-09-09T22:40:14;0.82;;;0.82;;
44098;SDS011;29762;50.086;14.364;2022-09-09T22:45:33;1.30;;;0.77;;
44098;SDS011;29762;50.086;14.364;2022-09-09T22:50:59;1.10;;;0.70;;
44098;SDS011;29762;50.086;14.364;2022-09-09T22:56:20;1.98;;;0.82;;
44098;SDS011;29762;50.086;14.364;2022-09-09T23:01:40;1.17;;;0.70;;
44098;SDS011;29762;50.086;14.364;2022-09-09T23:06:59;1.00;;;0.90;;
44098;SDS011;29762;50.086;14.364;2022-09-09T23:12:19;2.00;;;0.80;;
44098;SDS011;29762;50.086;14.364;2022-09-09T23:17:40;0.70;;;0.70;;
44098;SDS011;29762;50.086;14.364;2022-09-09T23:22:59;1.90;;;0.77;;
44098;SDS011;29762;50.086;14.364;2022-09-09T23:28:19;1.00;;;0.90;;
44098;SDS011;29762;50.086;14.364;2022-09-09T23:33:38;1.05;;;0.77;;
44098;SDS011;29762;50.086;14.364;2022-09-09T23:38:59;0.63;;;0.60;;
44098;SDS011;29762;50.086;14.364;2022-09-09T23:44:23;0.70;;;0.70;;
44098;SDS011;29762;50.086;14.364;2022-09-09T23:49:42;1.85;;;0.73;;
44098;SDS011;29762;50.086;14.364;2022-09-09T23:55:02;1.23;;;0.80;;
